Time;durP1;ratioP1;P1;durP2;ratioP2;P2;SDS_P1;SDS_P2;PMS_P1;PMS_P2;Temp;Humidity;BMP_temperature;BMP_pressure;BME280_temperature;BME280_humidity;BME280_pressure;Samples;Min_cycle;Max_cycle;Signal;HPM_P1;HPM_P2
2023/09/29 00:02:30;;;;;;;8.73;3.42;;;;;;;;;;5047443;28;20032;-68
2023/09/29 00:05:17;;;;;;;7.90;3.60;;;;;;;;;;5047763;28;20468;-69
2023/09/29 00:08:03;;;;;;;8.63;4.43;;;;;;;;;;5047846;28;20353;-69
2023/09/29 00:10:50;;;;;;;6.13;3.63;;;;;;;;;;5047815;28;20024;-67
2023/09/29 00:13:35;;;;;;;8.88;3.42;;;;;;;;;;5047697;28;20020;-68
2023/09/29 00:16:20;;;;;;;6.40;3.38;;;;;;;;;;5048151;28;20037;-73
2023/09/29 00:19:05;;;;;;;5.93;3.03;;;;;;;;;;5038606;28;20056;-77
2023/09/29 00:21:51;;;;;;;6.72;3.30;;;;;;;;;;5052194;28;20031;-78
2023/09/29 00:24:36;;;;;;;5.68;3.10;;;;;;;;;;5038057;28;20538;-77
2023/09/29 00:27:21;;;;;;;5.57;3.53;;;;;;;;;;5052941;28;20349;-77
2023/09/29 00:30:08;;;;;;;5.90;3.33;;;;;;;;;;5037930;28;20027;-78
2023/09/29 00:32:53;;;;;;;8.68;3.50;;;;;;;;;;5049976;28;20188;-78
2023/09/29 00:35:38;;;;;;;7.35;3.70;;;;;;;;;;5028997;28;20060;-71
2023/09/29 00:38:24;;;;;;;7.00;3.60;;;;;;;;;;5051351;28;20021;-70
2023/09/29 00:41:09;;;;;;;7.03;3.95;;;;;;;;;;5051403;28;20056;-70
2023/09/29 00:43:54;;;;;;;6.40;3.95;;;;;;;;;;5051460;28;20017;-69
2023/09/29 00:46:39;;;;;;;7.40;3.78;;;;;;;;;;5046104;28;20057;-69
2023/09/29 00:49:26;;;;;;;7.35;3.67;;;;;;;;;;5051207;28;20028;-68
2023/09/29 00:52:12;;;;;;;6.15;3.70;;;;;;;;;;5037435;28;20029;-71
2023/09/29 00:54:57;;;;;;;4.93;3.00;;;;;;;;;;5053354;28;20459;-70
2023/09/29 00:57:45;;;;;;;10.10;4.20;;;;;;;;;;5051187;28;20104;-70
2023/09/29 01:00:31;;;;;;;4.38;2.90;;;;;;;;;;5051150;28;20511;-69
2023/09/29 01:03:16;;;;;;;6.55;3.28;;;;;;;;;;5040362;28;20037;-70
2023/09/29 01:06:01;;;;;;;6.95;3.80;;;;;;;;;;5050994;28;20021;-69
2023/09/29 01:08:47;;;;;;;8.77;3.83;;;;;;;;;;5036667;28;20028;-69
2023/09/29 01:11:43;;;;;;;7.65;3.92;;;;;;;;;;5049413;28;20060;-69
2023/09/29 01:14:28;;;;;;;6.07;3.42;;;;;;;;;;5051901;28;20229;-77
2023/09/29 01:17:13;;;;;;;6.32;3.58;;;;;;;;;;5037392;28;20033;-79
2023/09/29 01:19:58;;;;;;;4.95;3.25;;;;;;;;;;5045231;28;20033;-80
2023/09/29 01:22:45;;;;;;;5.85;2.92;;;;;;;;;;5050827;28;20037;-79
2023/09/29 01:25:31;;;;;;;6.38;3.22;;;;;;;;;;5051650;28;20302;-79
2023/09/29 01:28:17;;;;;;;7.82;4.00;;;;;;;;;;5050992;28;20079;-78
2023/09/29 01:31:04;;;;;;;5.55;3.40;;;;;;;;;;5043259;28;20040;-69
2023/09/29 01:33:49;;;;;;;6.07;3.38;;;;;;;;;;5040280;28;20025;-70
2023/09/29 01:36:34;;;;;;;7.10;3.30;;;;;;;;;;5050004;28;20029;-71
2023/09/29 01:39:22;;;;;;;7.80;3.40;;;;;;;;;;5050572;28;20106;-70
2023/09/29 01:42:07;;;;;;;11.15;3.25;;;;;;;;;;5050502;28;20383;-70
2023/09/29 01:44:53;;;;;;;5.78;2.97;;;;;;;;;;5045395;28;20028;-70
2023/09/29 01:47:38;;;;;;;7.82;3.80;;;;;;;;;;5045426;28;20025;-70
2023/09/29 01:52:53;;;;;;;7.25;3.22;;;;;;;;;;5049985;28;20041;-69
2023/09/29 01:55:39;;;;;;;6.45;3.17;;;;;;;;;;5050690;28;20040;-71
2023/09/29 01:58:24;;;;;;;8.85;3.40;;;;;;;;;;5050866;28;20048;-70
2023/09/29 02:01:10;;;;;;;5.70;3.22;;;;;;;;;;5050744;28;20059;-68
2023/09/29 02:03:55;;;;;;;7.82;3.50;;;;;;;;;;5048136;28;20044;-68
2023/09/29 02:06:40;;;;;;;7.75;3.70;;;;;;;;;;5049927;28;20484;-78
2023/09/29 02:09:26;;;;;;;5.28;3.10;;;;;;;;;;5049168;28;20025;-71
2023/09/29 02:12:11;;;;;;;7.53;3.92;;;;;;;;;;5050493;28;20047;-70
2023/09/29 02:14:56;;;;;;;5.70;3.17;;;;;;;;;;5050457;28;20043;-70
2023/09/29 02:17:42;;;;;;;7.60;3.33;;;;;;;;;;5049919;28;20448;-69
2023/09/29 02:20:30;;;;;;;5.20;2.75;;;;;;;;;;5049042;28;20549;-70
2023/09/29 02:23:15;;;;;;;10.75;3.90;;;;;;;;;;5046940;28;20025;-71
2023/09/29 02:26:01;;;;;;;7.45;3.58;;;;;;;;;;5035596;28;20047;-64
2023/09/29 02:28:46;;;;;;;5.72;2.47;;;;;;;;;;5029528;28;20101;-73
2023/09/29 02:31:31;;;;;;;5.68;2.80;;;;;;;;;;5029592;28;20112;-73
2023/09/29 02:34:17;;;;;;;6.50;3.28;;;;;;;;;;5029367;28;20033;-73
2023/09/29 02:37:02;;;;;;;6.00;3.13;;;;;;;;;;5029597;28;20079;-73
2023/09/29 02:39:47;;;;;;;8.07;3.90;;;;;;;;;;5028784;28;20021;-73
2023/09/29 02:42:32;;;;;;;6.18;3.38;;;;;;;;;;5030220;28;20033;-69
2023/09/29 02:45:18;;;;;;;5.75;3.33;;;;;;;;;;5029507;28;20025;-73
2023/09/29 02:48:03;;;;;;;6.70;3.50;;;;;;;;;;5029389;28;20048;-76
2023/09/29 02:50:48;;;;;;;6.88;3.45;;;;;;;;;;5029001;28;20061;-73
2023/09/29 02:53:33;;;;;;;4.93;3.28;;;;;;;;;;5029031;28;20021;-73
2023/09/29 02:56:19;;;;;;;5.45;3.22;;;;;;;;;;5028863;28;20112;-72
2023/09/29 02:59:04;;;;;;;9.85;3.90;;;;;;;;;;5029217;28;20064;-76
2023/09/29 03:01:50;;;;;;;5.10;3.22;;;;;;;;;;5029112;28;20025;-68
2023/09/29 03:04:38;;;;;;;6.97;3.22;;;;;;;;;;5027460;28;20354;-64
2023/09/29 03:07:24;;;;;;;5.90;3.25;;;;;;;;;;5012778;28;20057;-63
2023/09/29 03:10:12;;;;;;;6.32;3.30;;;;;;;;;;5022339;28;20461;-63
2023/09/29 03:12:57;;;;;;;6.00;3.42;;;;;;;;;;5015159;28;20024;-62
2023/09/29 03:15:43;;;;;;;6.28;3.15;;;;;;;;;;5026205;28;20060;-65
2023/09/29 03:18:29;;;;;;;6.97;3.40;;;;;;;;;;5027791;28;20025;-63
2023/09/29 03:21:15;;;;;;;7.43;3.60;;;;;;;;;;5028615;28;20428;-70
2023/09/29 03:24:03;;;;;;;6.72;3.30;;;;;;;;;;5013729;28;20468;-64
2023/09/29 03:26:49;;;;;;;11.63;3.55;;;;;;;;;;5026361;28;20399;-62
2023/09/29 03:29:35;;;;;;;9.90;4.07;;;;;;;;;;5027938;28;20025;-65
2023/09/29 03:32:20;;;;;;;6.10;3.20;;;;;;;;;;5026060;28;20396;-67
2023/09/29 03:35:07;;;;;;;7.25;3.30;;;;;;;;;;5025658;28;20037;-64
2023/09/29 03:37:52;;;;;;;6.85;4.03;;;;;;;;;;5026523;28;20032;-74
2023/09/29 03:40:37;;;;;;;8.00;3.40;;;;;;;;;;5014881;28;20017;-68
2023/09/29 03:43:23;;;;;;;8.50;3.53;;;;;;;;;;5028222;28;20025;-72
2023/09/29 03:46:18;;;;;;;6.63;3.50;;;;;;;;;;5028126;28;20036;-70
2023/09/29 03:49:03;;;;;;;6.85;3.35;;;;;;;;;;5028132;28;20033;-70
2023/09/29 03:51:48;;;;;;;8.93;3.97;;;;;;;;;;5027721;28;20149;-69
2023/09/29 03:54:34;;;;;;;7.28;3.60;;;;;;;;;;5014482;28;20099;-69
2023/09/29 03:57:19;;;;;;;7.50;3.75;;;;;;;;;;5014423;28;20030;-68
2023/09/29 04:00:08;;;;;;;6.40;3.15;;;;;;;;;;5028391;28;20013;-65
2023/09/29 04:02:53;;;;;;;8.10;3.38;;;;;;;;;;5028006;28;20047;-67
2023/09/29 04:05:38;;;;;;;8.32;3.90;;;;;;;;;;5027965;28;20500;-65
2023/09/29 04:08:24;;;;;;;6.25;3.83;;;;;;;;;;5028360;28;20031;-66
2023/09/29 04:11:10;;;;;;;6.88;3.80;;;;;;;;;;5028337;28;20468;-65
2023/09/29 04:13:55;;;;;;;6.88;3.88;;;;;;;;;;5027992;28;20504;-65
2023/09/29 04:16:41;;;;;;;10.55;3.17;;;;;;;;;;5014080;28;20029;-74
2023/09/29 04:19:26;;;;;;;5.53;3.10;;;;;;;;;;5027645;28;20021;-65
2023/09/29 04:22:11;;;;;;;8.45;3.97;;;;;;;;;;5028153;28;20100;-65
2023/09/29 04:24:56;;;;;;;6.53;3.67;;;;;;;;;;5011679;28;20166;-67
2023/09/29 04:27:41;;;;;;;8.95;4.03;;;;;;;;;;5027868;28;20065;-66
2023/09/29 04:30:27;;;;;;;7.20;3.95;;;;;;;;;;5028062;28;20017;-66
2023/09/29 04:33:12;;;;;;;7.18;3.35;;;;;;;;;;5010452;28;20018;-69
2023/09/29 04:35:57;;;;;;;6.35;3.55;;;;;;;;;;5013555;28;20258;-65
2023/09/29 04:38:43;;;;;;;6.60;4.00;;;;;;;;;;5028284;28;20017;-75
2023/09/29 04:41:29;;;;;;;6.90;3.83;;;;;;;;;;5027600;28;20507;-75
2023/09/29 04:44:14;;;;;;;6.53;3.70;;;;;;;;;;5027708;28;20477;-75
2023/09/29 04:47:00;;;;;;;8.02;3.28;;;;;;;;;;5027583;28;20013;-74
2023/09/29 04:49:45;;;;;;;8.77;3.47;;;;;;;;;;5014065;28;20104;-77
2023/09/29 04:52:30;;;;;;;7.13;3.30;;;;;;;;;;5014842;28;20123;-75
2023/09/29 04:55:16;;;;;;;5.93;3.17;;;;;;;;;;5027640;28;20453;-70
2023/09/29 04:58:01;;;;;;;8.00;3.78;;;;;;;;;;5027853;28;20029;-69
2023/09/29 05:00:46;;;;;;;7.95;3.63;;;;;;;;;;5012899;28;20501;-69
2023/09/29 05:03:32;;;;;;;7.38;3.60;;;;;;;;;;5043699;28;20064;-72
2023/09/29 05:06:17;;;;;;;6.38;3.60;;;;;;;;;;5017707;28;20020;-69
2023/09/29 05:09:02;;;;;;;7.80;3.08;;;;;;;;;;5017609;28;20029;-70
2023/09/29 05:11:48;;;;;;;6.60;3.63;;;;;;;;;;5030992;28;20491;-69
2023/09/29 05:14:33;;;;;;;7.03;3.75;;;;;;;;;;5031030;28;20036;-75
2023/09/29 05:17:18;;;;;;;6.85;3.40;;;;;;;;;;5031125;28;20384;-74
2023/09/29 05:20:05;;;;;;;6.15;3.55;;;;;;;;;;5025526;28;20033;-75
2023/09/29 05:22:50;;;;;;;7.95;3.65;;;;;;;;;;5020585;28;20034;-76
2023/09/29 05:25:35;;;;;;;8.05;4.45;;;;;;;;;;5030691;28;20053;-75
2023/09/29 05:28:20;;;;;;;6.60;4.43;;;;;;;;;;5030983;28;20052;-75
2023/09/29 05:31:06;;;;;;;7.22;4.03;;;;;;;;;;5030489;28;20049;-73
2023/09/29 05:33:53;;;;;;;8.48;3.95;;;;;;;;;;5028735;28;20060;-64
2023/09/29 05:36:39;;;;;;;9.68;4.45;;;;;;;;;;5029310;28;20033;-65
2023/09/29 05:39:24;;;;;;;11.68;3.67;;;;;;;;;;5030094;28;20116;-64
2023/09/29 05:42:10;;;;;;;6.43;3.67;;;;;;;;;;5030968;28;20056;-63
2023/09/29 05:44:55;;;;;;;6.32;3.80;;;;;;;;;;5010809;28;20559;-64
2023/09/29 05:47:41;;;;;;;7.57;3.80;;;;;;;;;;5016282;28;20187;-78
2023/09/29 05:50:26;;;;;;;9.95;4.05;;;;;;;;;;5030089;28;20014;-77
2023/09/29 05:53:11;;;;;;;8.00;3.72;;;;;;;;;;5023586;28;20124;-77
2023/09/29 05:56:03;;;;;;;9.40;4.05;;;;;;;;;;5030594;28;20033;-76
2023/09/29 05:58:49;;;;;;;6.93;4.15;;;;;;;;;;5013448;28;20116;-74
2023/09/29 06:01:34;;;;;;;8.20;4.18;;;;;;;;;;5030345;28;20170;-76
2023/09/29 06:04:19;;;;;;;7.88;4.20;;;;;;;;;;5030096;28;20037;-76
2023/09/29 06:07:04;;;;;;;10.07;5.32;;;;;;;;;;5029984;28;20104;-69
2023/09/29 06:09:50;;;;;;;8.48;4.25;;;;;;;;;;5029642;28;20033;-70
2023/09/29 06:12:35;;;;;;;9.38;4.57;;;;;;;;;;5015813;28;20017;-70
2023/09/29 06:15:20;;;;;;;9.85;5.18;;;;;;;;;;5029986;28;20075;-70
2023/09/29 06:18:05;;;;;;;8.82;3.92;;;;;;;;;;5027094;28;20100;-71
2023/09/29 06:20:51;;;;;;;8.40;4.45;;;;;;;;;;5026925;28;20022;-71
2023/09/29 06:23:36;;;;;;;11.63;4.50;;;;;;;;;;5016381;28;20104;-66
2023/09/29 06:26:21;;;;;;;8.15;4.50;;;;;;;;;;5028898;28;20104;-71
2023/09/29 06:29:06;;;;;;;10.07;5.30;;;;;;;;;;5029878;28;20018;-70
2023/09/29 06:31:53;;;;;;;7.40;4.22;;;;;;;;;;5029888;28;20381;-71
2023/09/29 06:34:39;;;;;;;9.73;4.53;;;;;;;;;;5029464;28;20079;-68
2023/09/29 06:37:24;;;;;;;9.52;4.97;;;;;;;;;;5030426;28;20025;-71
2023/09/29 06:40:10;;;;;;;8.15;4.63;;;;;;;;;;5029551;28;20508;-70
2023/09/29 06:42:55;;;;;;;8.57;4.82;;;;;;;;;;5029414;28;20439;-71
2023/09/29 06:45:40;;;;;;;10.65;5.70;;;;;;;;;;5009345;28;20030;-69
2023/09/29 06:48:26;;;;;;;13.75;4.97;;;;;;;;;;5021067;28;20370;-70
2023/09/29 06:51:11;;;;;;;10.70;5.05;;;;;;;;;;5029331;28;20081;-70
2023/09/29 06:53:56;;;;;;;11.82;4.75;;;;;;;;;;5029376;28;20044;-68
2023/09/29 06:56:47;;;;;;;11.50;4.80;;;;;;;;;;5029528;28;20026;-69
2023/09/29 06:59:32;;;;;;;13.07;5.47;;;;;;;;;;5029645;28;20095;-70
2023/09/29 07:02:17;;;;;;;8.45;4.22;;;;;;;;;;5028454;28;20017;-76
2023/09/29 07:05:03;;;;;;;10.40;4.38;;;;;;;;;;5009424;28;20473;-67
2023/09/29 07:07:49;;;;;;;8.80;4.60;;;;;;;;;;5016314;28;20045;-67
2023/09/29 07:10:34;;;;;;;8.65;4.60;;;;;;;;;;5028779;28;20028;-68
2023/09/29 07:13:19;;;;;;;7.43;4.40;;;;;;;;;;5015134;28;20075;-66
2023/09/29 07:16:04;;;;;;;9.30;4.00;;;;;;;;;;5027986;28;20036;-67
2023/09/29 07:18:50;;;;;;;6.70;3.47;;;;;;;;;;5028658;28;20021;-74
2023/09/29 07:21:35;;;;;;;9.98;5.57;;;;;;;;;;5022531;28;20033;-74
2023/09/29 07:24:20;;;;;;;12.35;5.10;;;;;;;;;;5028694;28;20033;-68
2023/09/29 07:27:05;;;;;;;8.25;3.97;;;;;;;;;;5028624;28;20031;-69
2023/09/29 07:29:51;;;;;;;8.13;4.00;;;;;;;;;;5028536;28;20018;-70
2023/09/29 07:32:39;;;;;;;7.32;4.28;;;;;;;;;;5028561;28;20021;-70
2023/09/29 07:35:24;;;;;;;6.60;4.28;;;;;;;;;;5028018;28;20041;-69
2023/09/29 07:38:10;;;;;;;9.77;4.68;;;;;;;;;;5028389;28;20197;-68
2023/09/29 07:40:55;;;;;;;7.63;4.07;;;;;;;;;;5028253;28;20088;-77
2023/09/29 07:43:41;;;;;;;9.20;4.38;;;;;;;;;;5028322;28;20014;-77
2023/09/29 07:46:26;;;;;;;9.13;4.30;;;;;;;;;;5014636;28;20067;-78
2023/09/29 07:49:14;;;;;;;8.80;4.50;;;;;;;;;;5016169;28;20029;-78
2023/09/29 07:51:59;;;;;;;10.27;4.72;;;;;;;;;;5027862;28;20045;-76
2023/09/29 07:54:45;;;;;;;9.40;4.18;;;;;;;;;;5028135;28;20519;-78
2023/09/29 07:57:30;;;;;;;6.07;3.80;;;;;;;;;;5008739;28;20075;-66
2023/09/29 08:00:16;;;;;;;8.30;4.90;;;;;;;;;;5023190;28;20026;-70
2023/09/29 08:03:01;;;;;;;8.27;3.63;;;;;;;;;;5027810;28;20049;-69
2023/09/29 08:05:47;;;;;;;8.80;4.20;;;;;;;;;;5027678;28;20017;-68
2023/09/29 08:08:32;;;;;;;9.57;4.80;;;;;;;;;;5027480;28;20026;-70
2023/09/29 08:11:17;;;;;;;9.52;4.20;;;;;;;;;;5020317;28;20412;-69
2023/09/29 08:14:04;;;;;;;6.55;4.10;;;;;;;;;;5027752;28;20075;-74
2023/09/29 08:16:49;;;;;;;9.93;4.05;;;;;;;;;;5013062;28;20368;-73
2023/09/29 08:19:34;;;;;;;9.25;4.55;;;;;;;;;;5027878;28;20113;-69
2023/09/29 08:22:19;;;;;;;11.63;3.53;;;;;;;;;;5027648;28;20040;-70
2023/09/29 08:25:07;;;;;;;8.35;3.53;;;;;;;;;;5027244;28;20021;-70
2023/09/29 08:27:53;;;;;;;9.52;4.00;;;;;;;;;;5029320;28;20178;-70
2023/09/29 08:30:38;;;;;;;9.02;4.85;;;;;;;;;;5027763;28;20485;-70
2023/09/29 08:33:27;;;;;;;7.63;3.85;;;;;;;;;;5012270;28;20053;-66
2023/09/29 08:36:12;;;;;;;8.15;3.97;;;;;;;;;;5027617;28;20049;-69
2023/09/29 08:38:57;;;;;;;9.00;4.28;;;;;;;;;;5030317;28;20017;-71
2023/09/29 08:41:46;;;;;;;9.70;3.80;;;;;;;;;;5031616;28;20083;-70
2023/09/29 08:44:32;;;;;;;8.60;3.77;;;;;;;;;;5031700;28;20025;-69
2023/09/29 08:47:21;;;;;;;6.63;4.38;;;;;;;;;;5031802;28;20295;-68
2023/09/29 08:50:11;;;;;;;8.80;4.57;;;;;;;;;;5031497;28;20065;-70
2023/09/29 08:52:56;;;;;;;;;;;;;;;;;;5031703;28;20563;-64
2023/09/29 08:55:43;;;;;;;8.98;4.10;;;;;;;;;;5030958;28;19944;-73
2023/09/29 08:58:30;;;;;;;7.68;4.30;;;;;;;;;;5031615;28;20059;-72
2023/09/29 09:01:15;;;;;;;9.43;3.70;;;;;;;;;;5031611;28;20021;-72
2023/09/29 09:04:00;;;;;;;5.07;3.28;;;;;;;;;;5031222;28;20025;-72
2023/09/29 09:06:45;;;;;;;8.00;3.97;;;;;;;;;;5025378;28;20557;-73
2023/09/29 09:09:32;;;;;;;6.30;3.83;;;;;;;;;;5028835;28;20029;-75
2023/09/29 09:12:17;;;;;;;9.75;3.72;;;;;;;;;;5031274;28;20029;-69
2023/09/29 09:15:03;;;;;;;10.25;4.22;;;;;;;;;;5031950;28;20427;-65
2023/09/29 09:17:49;;;;;;;4.95;3.20;;;;;;;;;;5031154;28;20480;-64
2023/09/29 09:20:34;;;;;;;5.22;3.35;;;;;;;;;;5031505;28;20030;-66
2023/09/29 09:23:19;;;;;;;5.15;3.53;;;;;;;;;;5031752;28;20060;-67
2023/09/29 09:26:16;;;;;;;6.93;3.47;;;;;;;;;;5025877;28;20017;-67
2023/09/29 09:29:13;;;;;;;4.85;3.55;;;;;;;;;;5030876;28;20083;-73
2023/09/29 09:31:59;;;;;;;5.05;2.67;;;;;;;;;;5017185;28;20112;-64
2023/09/29 09:34:45;;;;;;;4.72;2.70;;;;;;;;;;5030305;28;20476;-66
2023/09/29 09:37:30;;;;;;;5.18;3.22;;;;;;;;;;5030709;28;20099;-67
2023/09/29 09:40:15;;;;;;;6.25;2.90;;;;;;;;;;5030713;28;20380;-65
2023/09/29 09:43:06;;;;;;;5.15;3.03;;;;;;;;;;5013956;28;20374;-65
2023/09/29 09:45:56;;;;;;;5.72;3.08;;;;;;;;;;5019073;28;20108;-73
2023/09/29 09:48:41;;;;;;;;;;;;;;;;;;5030178;28;20109;-73
2023/09/29 09:51:32;;;;;;;5.00;2.65;;;;;;;;;;5031393;28;20463;-69
2023/09/29 09:54:21;;;;;;;4.25;3.05;;;;;;;;;;5018884;28;20018;-71
2023/09/29 09:57:10;;;;;;;5.50;3.20;;;;;;;;;;5027756;28;20032;-69
2023/09/29 09:59:56;;;;;;;6.85;3.42;;;;;;;;;;5013835;28;20025;-69
2023/09/29 10:02:46;;;;;;;6.05;3.13;;;;;;;;;;5011067;28;20112;-69
2023/09/29 10:05:31;;;;;;;6.63;3.30;;;;;;;;;;5015159;28;20036;-66
2023/09/29 10:08:24;;;;;;;8.65;3.08;;;;;;;;;;5023692;28;20036;-73
2023/09/29 10:11:11;;;;;;;6.50;3.22;;;;;;;;;;5029568;28;20029;-72
2023/09/29 10:14:03;;;;;;;9.07;2.60;;;;;;;;;;5029811;28;20112;-73
2023/09/29 10:16:48;;;;;;;4.75;2.90;;;;;;;;;;5029882;28;20038;-73
2023/09/29 10:19:34;;;;;;;6.30;2.60;;;;;;;;;;5029576;28;20112;-75
2023/09/29 10:22:23;;;;;;;5.85;2.90;;;;;;;;;;5030131;28;20033;-72
2023/09/29 10:25:19;;;;;;;7.07;2.97;;;;;;;;;;5029506;28;20037;-77
2023/09/29 10:28:08;;;;;;;6.75;3.35;;;;;;;;;;5030138;28;20064;-65
2023/09/29 10:30:53;;;;;;;4.30;2.38;;;;;;;;;;5030429;28;20040;-65
2023/09/29 10:33:52;;;;;;;4.95;2.75;;;;;;;;;;5030059;28;20455;-64
2023/09/29 10:36:39;;;;;;;8.30;2.90;;;;;;;;;;5029864;28;20026;-67
2023/09/29 10:39:28;;;;;;;5.88;2.80;;;;;;;;;;5029947;28;20041;-67
2023/09/29 10:42:14;;;;;;;4.53;2.55;;;;;;;;;;5020491;28;20030;-66
2023/09/29 10:44:59;;;;;;;6.65;2.85;;;;;;;;;;5028899;28;20018;-72
2023/09/29 10:47:45;;;;;;;7.15;2.92;;;;;;;;;;5028828;28;20190;-75
2023/09/29 10:50:30;;;;;;;5.18;3.22;;;;;;;;;;5027495;28;20071;-73
2023/09/29 10:53:16;;;;;;;4.20;2.25;;;;;;;;;;5029341;28;20530;-73
2023/09/29 10:56:03;;;;;;;4.32;2.78;;;;;;;;;;5028974;28;20025;-74
2023/09/29 10:58:49;;;;;;;4.35;2.90;;;;;;;;;;5009606;28;20017;-73
2023/09/29 11:01:35;;;;;;;6.40;2.83;;;;;;;;;;5020399;28;20044;-78
2023/09/29 11:04:20;;;;;;;5.18;3.08;;;;;;;;;;5028698;28;20022;-66
2023/09/29 11:07:06;;;;;;;5.47;3.00;;;;;;;;;;5029499;28;20021;-66
2023/09/29 11:09:51;;;;;;;7.45;3.10;;;;;;;;;;5029013;28;20480;-65
2023/09/29 11:12:39;;;;;;;4.80;2.70;;;;;;;;;;5029425;28;20040;-67
2023/09/29 11:15:26;;;;;;;6.75;2.70;;;;;;;;;;5029534;28;20030;-66
2023/09/29 11:18:12;;;;;;;6.97;2.92;;;;;;;;;;5028516;28;20029;-67
2023/09/29 11:21:04;;;;;;;4.57;2.92;;;;;;;;;;5028522;28;20485;-66
2023/09/29 11:23:50;;;;;;;4.53;2.63;;;;;;;;;;5028649;28;20025;-77
2023/09/29 11:26:40;;;;;;;5.57;2.65;;;;;;;;;;5027828;28;20021;-77
2023/09/29 11:29:28;;;;;;;5.78;2.72;;;;;;;;;;5028400;28;20040;-81
2023/09/29 11:32:13;;;;;;;7.72;3.00;;;;;;;;;;5025703;28;20128;-78
2023/09/29 11:34:58;;;;;;;5.13;2.80;;;;;;;;;;5026004;28;20032;-77
2023/09/29 11:37:43;;;;;;;7.07;3.03;;;;;;;;;;5028863;28;20350;-73
2023/09/29 11:40:29;;;;;;;4.95;2.80;;;;;;;;;;5022572;28;20025;-77
2023/09/29 11:43:14;;;;;;;4.10;2.63;;;;;;;;;;5027169;28;20080;-76
2023/09/29 11:46:00;;;;;;;7.78;3.00;;;;;;;;;;5028475;28;20026;-79
2023/09/29 11:48:46;;;;;;;6.55;3.30;;;;;;;;;;5014625;28;20477;-78
2023/09/29 11:51:31;;;;;;;6.03;3.08;;;;;;;;;;5028490;28;20136;-76
2023/09/29 11:54:16;;;;;;;5.30;2.95;;;;;;;;;;5014889;28;20022;-77
2023/09/29 11:57:02;;;;;;;7.22;3.08;;;;;;;;;;5027775;28;20488;-73
2023/09/29 11:59:47;;;;;;;5.93;2.58;;;;;;;;;;5028059;28;20087;-75
2023/09/29 12:02:33;;;;;;;3.95;2.47;;;;;;;;;;5027720;28;20022;-73
2023/09/29 12:05:18;;;;;;;5.07;2.92;;;;;;;;;;5028316;28;20029;-72
2023/09/29 12:08:04;;;;;;;5.25;2.97;;;;;;;;;;5028864;28;20361;-74
2023/09/29 12:10:49;;;;;;;7.85;2.97;;;;;;;;;;5028262;28;20478;-74
2023/09/29 12:13:36;;;;;;;6.63;2.90;;;;;;;;;;5032623;28;20064;-77
2023/09/29 12:16:21;;;;;;;9.20;3.20;;;;;;;;;;5032164;28;20086;-65
2023/09/29 12:19:07;;;;;;;5.90;2.88;;;;;;;;;;5032049;28;20026;-68
2023/09/29 12:21:52;;;;;;;4.20;2.70;;;;;;;;;;5032309;28;20029;-67
2023/09/29 12:24:38;;;;;;;4.90;3.20;;;;;;;;;;5030938;28;20362;-65
2023/09/29 12:27:23;;;;;;;6.88;3.10;;;;;;;;;;5040251;28;20358;-67
2023/09/29 12:30:12;;;;;;;8.23;3.30;;;;;;;;;;5032214;28;20162;-65
2023/09/29 12:32:57;;;;;;;6.13;2.95;;;;;;;;;;5032259;28;20022;-66
2023/09/29 12:35:42;;;;;;;7.63;3.05;;;;;;;;;;5031409;28;20112;-72
2023/09/29 12:38:27;;;;;;;6.90;3.25;;;;;;;;;;5031665;28;20033;-72
2023/09/29 12:41:13;;;;;;;6.35;2.95;;;;;;;;;;5031540;28;20496;-72
2023/09/29 12:43:59;;;;;;;5.85;2.60;;;;;;;;;;5022385;28;20048;-70
2023/09/29 12:46:44;;;;;;;4.05;2.85;;;;;;;;;;5032095;28;20037;-72
2023/09/29 12:49:29;;;;;;;5.07;2.92;;;;;;;;;;5030741;28;20506;-70
2023/09/29 12:52:15;;;;;;;3.47;2.28;;;;;;;;;;5025760;28;20399;-69
2023/09/29 12:55:00;;;;;;;5.35;2.58;;;;;;;;;;5030933;28;20388;-68
2023/09/29 12:57:45;;;;;;;6.25;2.40;;;;;;;;;;5019397;28;20048;-69
2023/09/29 13:00:34;;;;;;;4.72;2.85;;;;;;;;;;5031368;28;20026;-69
2023/09/29 13:03:19;;;;;;;5.05;2.85;;;;;;;;;;5031304;28;20507;-70
2023/09/29 13:06:05;;;;;;;8.68;2.58;;;;;;;;;;5031400;28;20033;-69
2023/09/29 13:08:50;;;;;;;5.53;2.30;;;;;;;;;;5013038;28;20247;-72
2023/09/29 13:11:35;;;;;;;5.75;2.50;;;;;;;;;;5030634;28;20021;-75
2023/09/29 13:14:22;;;;;;;4.03;2.60;;;;;;;;;;5031043;28;20383;-68
2023/09/29 13:17:09;;;;;;;6.05;2.28;;;;;;;;;;5030828;28;20149;-68
2023/09/29 13:19:54;;;;;;;2.83;1.90;;;;;;;;;;5029444;28;20567;-69
2023/09/29 13:22:39;;;;;;;6.53;2.53;;;;;;;;;;5016725;28;20025;-67
2023/09/29 13:25:25;;;;;;;4.28;2.45;;;;;;;;;;5024270;28;20112;-69
2023/09/29 13:28:10;;;;;;;6.22;2.60;;;;;;;;;;5029908;28;20112;-75
2023/09/29 13:30:57;;;;;;;3.25;2.30;;;;;;;;;;5030769;28;20056;-70
2023/09/29 13:33:42;;;;;;;3.60;2.15;;;;;;;;;;5031078;28;20188;-72
2023/09/29 13:36:27;;;;;;;4.57;2.30;;;;;;;;;;5031281;28;20034;-72
2023/09/29 13:39:13;;;;;;;3.83;2.55;;;;;;;;;;5031566;28;20033;-71
2023/09/29 13:41:58;;;;;;;3.60;2.40;;;;;;;;;;5030964;28;20075;-70
2023/09/29 13:44:44;;;;;;;4.50;2.45;;;;;;;;;;5031037;28;20476;-71
2023/09/29 13:47:29;;;;;;;6.22;2.97;;;;;;;;;;5012619;28;20061;-69
2023/09/29 13:50:14;;;;;;;5.93;2.90;;;;;;;;;;5030334;28;20028;-71
2023/09/29 13:52:59;;;;;;;5.22;2.55;;;;;;;;;;5031072;28;20052;-68
2023/09/29 13:55:45;;;;;;;5.25;2.17;;;;;;;;;;5030538;28;20119;-68
2023/09/29 13:58:30;;;;;;;5.30;2.97;;;;;;;;;;5030658;28;20025;-69
2023/09/29 14:01:17;;;;;;;4.68;2.67;;;;;;;;;;5010908;28;20481;-68
2023/09/29 14:04:03;;;;;;;5.65;2.78;;;;;;;;;;5028802;28;20017;-71
2023/09/29 14:06:48;;;;;;;5.38;3.03;;;;;;;;;;5030392;28;20037;-74
2023/09/29 14:09:37;;;;;;;4.63;2.55;;;;;;;;;;5029906;28;20479;-69
2023/09/29 14:12:22;;;;;;;4.65;3.35;;;;;;;;;;5029378;28;20029;-69
2023/09/29 14:15:09;;;;;;;6.88;3.10;;;;;;;;;;5029244;28;20590;-69
2023/09/29 14:17:54;;;;;;;6.75;2.90;;;;;;;;;;5029320;28;20025;-70
2023/09/29 14:20:40;;;;;;;6.25;2.85;;;;;;;;;;5029731;28;20431;-68
2023/09/29 14:23:25;;;;;;;4.22;2.65;;;;;;;;;;5030227;28;20030;-65
2023/09/29 14:26:10;;;;;;;5.22;3.00;;;;;;;;;;5028893;28;20037;-74
2023/09/29 14:28:56;;;;;;;5.45;2.63;;;;;;;;;;5030081;28;20025;-75
2023/09/29 14:31:44;;;;;;;3.67;1.85;;;;;;;;;;5029759;28;20022;-75
2023/09/29 14:34:29;;;;;;;5.03;2.63;;;;;;;;;;5029373;28;20018;-75
2023/09/29 14:37:14;;;;;;;4.85;2.33;;;;;;;;;;5009680;28;20033;-76
2023/09/29 14:40:00;;;;;;;6.05;2.85;;;;;;;;;;5015970;28;20135;-78
2023/09/29 14:42:46;;;;;;;4.55;2.53;;;;;;;;;;5029394;28;20032;-70
2023/09/29 14:45:31;;;;;;;4.85;2.38;;;;;;;;;;5018522;28;20025;-76
2023/09/29 14:48:17;;;;;;;5.25;2.72;;;;;;;;;;5029617;28;20072;-77
2023/09/29 14:51:03;;;;;;;7.47;2.70;;;;;;;;;;5029300;28;20053;-76
2023/09/29 14:53:49;;;;;;;11.43;3.33;;;;;;;;;;5029285;28;20104;-77
2023/09/29 14:56:34;;;;;;;8.65;3.30;;;;;;;;;;5029281;28;20075;-75
2023/09/29 14:59:20;;;;;;;6.65;2.95;;;;;;;;;;5029467;28;20044;-64
2023/09/29 15:02:05;;;;;;;7.00;3.42;;;;;;;;;;5028679;28;20481;-65
2023/09/29 15:04:51;;;;;;;6.53;3.58;;;;;;;;;;5008912;28;20080;-71
2023/09/29 15:07:36;;;;;;;5.53;2.38;;;;;;;;;;5028109;28;20017;-70
2023/09/29 15:10:21;;;;;;;5.72;2.33;;;;;;;;;;5029340;28;20029;-74
2023/09/29 15:13:07;;;;;;;9.35;3.25;;;;;;;;;;5029161;28;20053;-73
2023/09/29 15:15:52;;;;;;;9.30;2.80;;;;;;;;;;5028977;28;20384;-72
2023/09/29 15:18:38;;;;;;;8.13;3.15;;;;;;;;;;5028645;28;20524;-66
2023/09/29 15:21:23;;;;;;;4.80;2.90;;;;;;;;;;5023140;28;20105;-69
2023/09/29 15:24:09;;;;;;;6.32;3.00;;;;;;;;;;5024172;28;20037;-68
2023/09/29 15:26:54;;;;;;;6.13;3.53;;;;;;;;;;5028134;28;20017;-69
2023/09/29 15:29:39;;;;;;;12.30;3.22;;;;;;;;;;5028784;28;20025;-69
2023/09/29 15:32:24;;;;;;;6.88;2.70;;;;;;;;;;5015368;28;20029;-69
2023/09/29 15:35:11;;;;;;;8.35;3.25;;;;;;;;;;5028323;28;20389;-69
2023/09/29 15:37:56;;;;;;;6.38;3.10;;;;;;;;;;5024851;28;20025;-66
2023/09/29 15:40:41;;;;;;;10.80;3.60;;;;;;;;;;5028394;28;20017;-74
2023/09/29 15:43:27;;;;;;;7.40;3.05;;;;;;;;;;5028838;28;20021;-75
2023/09/29 15:46:13;;;;;;;8.52;4.15;;;;;;;;;;5019925;28;20103;-75
2023/09/29 15:48:58;;;;;;;14.57;4.10;;;;;;;;;;5027652;28;20025;-74
2023/09/29 15:51:43;;;;;;;9.52;4.43;;;;;;;;;;5025820;28;20038;-73
2023/09/29 15:54:28;;;;;;;10.48;4.47;;;;;;;;;;5026256;28;20075;-76
2023/09/29 15:57:15;;;;;;;7.93;3.60;;;;;;;;;;5028172;28;20461;-70
2023/09/29 16:00:00;;;;;;;11.63;4.68;;;;;;;;;;5014502;28;20075;-69
2023/09/29 16:02:45;;;;;;;8.90;4.20;;;;;;;;;;5028218;28;20026;-71
2023/09/29 16:05:31;;;;;;;10.32;5.30;;;;;;;;;;5027900;28;20476;-71
2023/09/29 16:08:16;;;;;;;16.15;5.88;;;;;;;;;;5028288;28;20033;-71
2023/09/29 16:11:03;;;;;;;19.30;7.35;;;;;;;;;;5027480;28;20029;-71
2023/09/29 16:13:49;;;;;;;17.48;8.55;;;;;;;;;;5027994;28;20025;-75
2023/09/29 16:16:36;;;;;;;18.90;8.80;;;;;;;;;;5027943;28;20040;-65
2023/09/29 16:19:21;;;;;;;19.85;10.02;;;;;;;;;;5027308;28;20476;-65
2023/09/29 16:22:09;;;;;;;17.25;8.48;;;;;;;;;;5025162;28;20106;-66
2023/09/29 16:24:54;;;;;;;17.23;8.77;;;;;;;;;;5025017;28;20028;-64
2023/09/29 16:27:39;;;;;;;21.67;10.30;;;;;;;;;;5030097;28;20022;-66
2023/09/29 16:30:25;;;;;;;20.30;10.15;;;;;;;;;;5012235;28;20091;-67
2023/09/29 16:33:12;;;;;;;23.27;11.65;;;;;;;;;;5027412;28;20362;-74
2023/09/29 16:35:57;;;;;;;22.50;12.80;;;;;;;;;;5027264;28;20030;-76
2023/09/29 16:38:43;;;;;;;26.05;12.13;;;;;;;;;;5027837;28;20014;-79